Etusivu
METAR-TAF:

METAR-TAF

Lentoasemat :

Souillac

Brive-la-Gaillarde, Ranska

Leveyspiiri: 45-02-28N, Pituuspiiri: 001-28-59E, korkeus merenpinnasta: 311 m

Tämänhetkinen sää

Tämä raportti tehtiin 31 minuuttia sitten, kello 21.30 UTC
Tuuli 4 kn luoteesta
Lämpötila 19°C
Kosteus 68%
Ilmanpaine 1018 hPa
Näkyvyys 10 km tai enemmän
ei pilviä alle 1500 m:ssä eikä cumulonimbus-pilviä

METAR: LFSL 222130Z AUTO 32004KT CAVOK 19/13 Q1018

Aika: 00:01 (22:01 UTC)

Sääennuste

Tämä raportti tehtiin 8 tuntia ja 1 minuuttia sitten, kello 14.00 UTC
Ennuste voimassa 22. päivästä klo 15 UTC - 22. päivään klo 24 UTC
Tuuli 6 kn pohjoisen/luoteesta
Näkyvyys 10 km tai enemmän
ei pilviä alle 1500 m:ssä eikä cumulonimbus-pilviä

TAF: LFSL 221400Z 2215/2224 34006KT CAVOK

Säähavainnot ja -ennusteet yli 4000 lentoasemalta (METAR- ja TAF-raportit).

Käytössä olevat sääasemat on merkitty karttaan keltaisilla ja punaisilla pisteillä.

Aseta hiiri pisteen päälle nähdäksesi sääaseman nimen.

Klikkaa sitten nähdäksesi säähavainnot ja -ennusteet.

Kartan vaihtaminen: klikkaa mustalla rastilla varustettuja vihreitä pisteitä, niin voit zoomata sisään; viivalla varustettua vihreää pistettä, niin voit zoomata ulos tai vihreitä nuolia, niin pääset viereisille kartoille.


METAR-TAF: